createdAt,value
2022-11-12T00:02:30.251Z,10.13
2022-11-12T00:05:18.370Z,10.08
2022-11-12T00:08:06.578Z,10.07
2022-11-12T00:10:54.600Z,10.03
2022-11-12T00:13:42.068Z,10.05
2022-11-12T00:16:29.647Z,9.99
2022-11-12T00:19:18.643Z,9.99
2022-11-12T00:22:06.479Z,9.99
2022-11-12T00:24:53.981Z,9.96
2022-11-12T00:27:41.587Z,9.95
2022-11-12T00:30:29.145Z,9.98
2022-11-12T00:33:16.650Z,9.94
2022-11-12T00:36:06.271Z,9.91
2022-11-12T00:38:53.881Z,9.85
2022-11-12T00:41:41.614Z,9.85
2022-11-12T00:44:29.726Z,9.85
2022-11-12T00:47:17.539Z,9.82
2022-11-12T00:50:05.936Z,9.79
2022-11-12T00:52:55.399Z,9.80
2022-11-12T00:55:43.087Z,9.78
2022-11-12T00:58:31.414Z,9.78
2022-11-12T01:01:19.417Z,9.77
2022-11-12T01:04:07.188Z,9.79
2022-11-12T01:06:54.786Z,9.78
2022-11-12T01:09:43.724Z,9.79
2022-11-12T01:12:32.688Z,9.80
2022-11-12T01:15:20.490Z,9.77
2022-11-12T01:18:08.024Z,9.77
2022-11-12T01:20:55.673Z,9.78
2022-11-12T01:23:44.060Z,9.76
2022-11-12T01:26:33.359Z,9.75
2022-11-12T01:29:20.909Z,9.74
2022-11-12T01:32:08.924Z,9.75
2022-11-12T01:34:56.376Z,9.78
2022-11-12T01:37:43.995Z,9.76
2022-11-12T01:40:32.791Z,9.75
2022-11-12T01:43:22.032Z,9.75
2022-11-12T01:46:17.901Z,9.75
2022-11-12T01:49:12.247Z,9.75
2022-11-12T01:52:09.464Z,9.76
2022-11-12T01:55:02.476Z,9.79
2022-11-12T01:57:53.632Z,9.82
2022-11-12T02:00:43.050Z,9.76
2022-11-12T02:03:31.932Z,9.73
2022-11-12T02:06:21.622Z,9.75
2022-11-12T02:09:10.651Z,9.75
2022-11-12T02:11:59.325Z,9.81
2022-11-12T02:14:46.224Z,9.80
2022-11-12T02:17:35.396Z,9.77
2022-11-12T02:20:23.281Z,9.78
2022-11-12T02:23:12.704Z,9.73
2022-11-12T02:26:01.122Z,9.62
2022-11-12T02:28:48.789Z,9.52
2022-11-12T02:31:37.463Z,9.41
2022-11-12T02:34:25.063Z,9.35
2022-11-12T02:37:12.902Z,9.23
2022-11-12T02:40:01.662Z,9.24
2022-11-12T02:42:49.562Z,9.21
2022-11-12T02:45:37.309Z,9.13
2022-11-12T02:48:24.840Z,9.14
2022-11-12T02:51:12.637Z,9.07
2022-11-12T02:54:00.454Z,9.05
2022-11-12T02:56:49.609Z,9.00
2022-11-12T02:59:37.155Z,8.92
2022-11-12T03:02:24.885Z,8.78
2022-11-12T03:05:13.423Z,8.77
2022-11-12T03:08:02.567Z,8.67
2022-11-12T03:10:50.421Z,8.62
2022-11-12T03:13:39.905Z,8.50
2022-11-12T03:16:28.116Z,8.41
2022-11-12T03:19:15.767Z,8.41
2022-11-12T03:22:03.409Z,8.28
2022-11-12T03:24:50.926Z,8.34
2022-11-12T03:27:38.441Z,8.21
2022-11-12T03:30:29.450Z,8.19
2022-11-12T03:33:17.338Z,8.15
2022-11-12T03:36:05.424Z,8.09
2022-11-12T03:38:52.883Z,8.03
2022-11-12T03:41:40.334Z,7.96
2022-11-12T03:44:27.901Z,7.91
2022-11-12T03:47:16.692Z,7.83
2022-11-12T03:50:04.695Z,7.77
2022-11-12T03:52:57.037Z,7.75
2022-11-12T03:55:44.571Z,7.76
2022-11-12T03:58:32.139Z,7.68
2022-11-12T04:01:19.702Z,7.64
2022-11-12T04:04:08.607Z,7.61
2022-11-12T04:07:13.775Z,7.53
2022-11-12T04:10:01.596Z,7.49
2022-11-12T04:13:06.651Z,7.47
2022-11-12T04:16:08.324Z,7.36
2022-11-12T04:19:14.961Z,7.32
2022-11-12T04:22:07.829Z,7.31
2022-11-12T04:25:12.965Z,7.19
2022-11-12T04:28:00.930Z,7.09
2022-11-12T04:30:47.568Z,7.09
2022-11-12T04:33:34.989Z,7.04
2022-11-12T04:36:22.372Z,6.86
2022-11-12T04:39:11.401Z,6.89
2022-11-12T04:42:16.748Z,6.90
2022-11-12T04:45:05.381Z,6.87
2022-11-12T04:47:52.817Z,6.83
2022-11-12T04:50:41.672Z,6.78
2022-11-12T04:53:30.764Z,6.75
2022-11-12T04:56:19.716Z,6.57
2022-11-12T04:59:07.508Z,6.56
2022-11-12T05:01:55.193Z,6.49
2022-11-12T05:04:42.923Z,6.36
2022-11-12T05:07:32.918Z,6.42
2022-11-12T05:10:20.453Z,6.37
2022-11-12T05:13:09.346Z,6.34
2022-11-12T05:15:57.263Z,6.17
2022-11-12T05:18:44.772Z,6.13
2022-11-12T05:21:50.101Z,5.96
2022-11-12T05:24:42.628Z,5.86
2022-11-12T05:27:30.547Z,5.91
2022-11-12T05:30:19.743Z,5.94
2022-11-12T05:33:07.250Z,5.90
2022-11-12T05:35:57.629Z,5.87
2022-11-12T05:38:45.430Z,5.70
2022-11-12T05:41:57.946Z,5.69
2022-11-12T05:44:40.330Z,5.79
2022-11-12T05:47:29.202Z,5.74
2022-11-12T05:50:17.115Z,5.67
2022-11-12T05:53:05.050Z,5.64
2022-11-12T05:55:52.528Z,5.72
2022-11-12T05:58:40.435Z,5.65
2022-11-12T06:01:28.042Z,5.60
2022-11-12T06:04:17.712Z,5.50
2022-11-12T06:07:05.364Z,5.31
2022-11-12T06:09:53.340Z,5.27
2022-11-12T06:12:40.753Z,5.17
2022-11-12T06:15:28.496Z,5.14
2022-11-12T06:18:16.225Z,5.16
2022-11-12T06:21:23.036Z,5.08
2022-11-12T06:24:11.227Z,5.17
2022-11-12T06:26:58.783Z,5.14
2022-11-12T06:29:46.267Z,5.19
2022-11-12T06:32:34.397Z,5.21
2022-11-12T06:35:22.224Z,5.14
2022-11-12T06:38:11.181Z,5.07
2022-11-12T06:40:59.171Z,4.99
2022-11-12T06:43:46.686Z,5.04
2022-11-12T06:46:34.217Z,5.06
2022-11-12T06:49:22.102Z,4.96
2022-11-12T06:52:15.201Z,4.98
2022-11-12T06:55:06.122Z,4.95
2022-11-12T06:57:54.111Z,4.95
2022-11-12T07:00:42.154Z,4.99
2022-11-12T07:03:29.563Z,4.99
2022-11-12T07:06:20.167Z,4.97
2022-11-12T07:09:08.190Z,4.93
2022-11-12T07:11:56.968Z,5.07
2022-11-12T07:14:46.581Z,5.03
2022-11-12T07:17:34.403Z,4.97
2022-11-12T07:20:22.017Z,4.95
2022-11-12T07:23:09.576Z,4.96
2022-11-12T07:25:58.567Z,5.00
2022-11-12T07:28:47.744Z,5.05
2022-11-12T07:31:35.988Z,5.04
2022-11-12T07:34:23.914Z,5.05
2022-11-12T07:37:11.449Z,5.18
2022-11-12T07:40:00.051Z,5.19
2022-11-12T07:42:47.688Z,5.26
2022-11-12T07:45:36.651Z,5.31
2022-11-12T07:48:24.770Z,5.26
2022-11-12T07:51:15.671Z,5.30
2022-11-12T07:54:04.236Z,5.56
2022-11-12T07:56:51.719Z,5.60
2022-11-12T07:59:44.753Z,5.61
2022-11-12T08:02:35.328Z,5.63
2022-11-12T08:05:23.197Z,5.67
2022-11-12T08:08:11.131Z,5.79
2022-11-12T08:10:59.585Z,6.03
2022-11-12T08:13:47.474Z,6.20
2022-11-12T08:16:34.992Z,6.35
2022-11-12T08:19:23.824Z,6.55
2022-11-12T08:22:11.872Z,6.46
2022-11-12T08:24:59.692Z,6.54
2022-11-12T08:27:47.388Z,6.81
2022-11-12T08:30:36.092Z,6.71
2022-11-12T08:33:23.676Z,6.84
2022-11-12T08:36:14.668Z,7.09
2022-11-12T08:39:02.257Z,7.13
2022-11-12T08:41:49.927Z,7.17
2022-11-12T08:44:37.507Z,7.62
2022-11-12T08:47:24.894Z,7.61
2022-11-12T08:50:12.527Z,7.87
2022-11-12T08:53:06.160Z,7.90
2022-11-12T08:55:55.355Z,7.92
2022-11-12T08:58:43.189Z,8.21
2022-11-12T09:01:30.795Z,8.47
2022-11-12T09:04:18.707Z,8.99
2022-11-12T09:07:09.323Z,8.79
2022-11-12T09:09:58.625Z,9.31
2022-11-12T09:12:51.523Z,9.58
2022-11-12T09:15:39.694Z,8.99
2022-11-12T09:18:27.590Z,9.11
2022-11-12T09:21:15.769Z,9.05
2022-11-12T09:24:03.819Z,9.26
2022-11-12T09:26:54.748Z,9.32
2022-11-12T09:29:42.391Z,9.50
2022-11-12T09:32:29.822Z,9.50
2022-11-12T09:35:17.402Z,9.81
2022-11-12T09:38:04.996Z,9.58
2022-11-12T09:41:17.329Z,9.88
2022-11-12T09:44:10.012Z,9.76
2022-11-12T09:47:03.918Z,9.94
2022-11-12T09:49:59.849Z,9.94
2022-11-12T09:52:49.063Z,9.73
2022-11-12T09:55:42.034Z,9.89
2022-11-12T09:58:30.131Z,9.93
2022-11-12T10:01:25.192Z,10.33
2022-11-12T10:04:27.521Z,10.35
2022-11-12T10:07:25.621Z,10.37
2022-11-12T10:10:17.649Z,10.48
2022-11-12T10:13:16.155Z,10.64
2022-11-12T10:16:35.569Z,10.63
2022-11-12T10:19:43.659Z,10.79
2022-11-12T10:22:41.812Z,10.67
2022-11-12T10:25:30.833Z,10.71
2022-11-12T10:28:30.198Z,11.02
2022-11-12T10:31:22.143Z,11.02
2022-11-12T10:34:16.917Z,11.14
2022-11-12T10:37:07.644Z,11.21
2022-11-12T10:39:55.284Z,11.15
2022-11-12T10:42:58.847Z,11.38
2022-11-12T10:45:48.141Z,11.44
2022-11-12T10:48:37.193Z,11.55
2022-11-12T10:51:31.071Z,11.60
2022-11-12T10:54:31.191Z,11.57
2022-11-12T10:57:23.647Z,11.48
2022-11-12T11:00:20.038Z,11.52
2022-11-12T11:03:18.246Z,11.59
2022-11-12T11:06:07.895Z,11.70
2022-11-12T11:09:10.087Z,12.27
2022-11-12T11:11:59.614Z,12.75
2022-11-12T11:14:47.560Z,13.38
2022-11-12T11:17:36.514Z,13.41
2022-11-12T11:20:27.160Z,13.77
2022-11-12T11:23:21.369Z,14.48
2022-11-12T11:26:26.160Z,14.42
2022-11-12T11:29:36.276Z,13.75
2022-11-12T11:33:00.799Z,14.10
2022-11-12T11:35:58.785Z,14.07
2022-11-12T11:38:58.482Z,13.96
2022-11-12T11:42:01.343Z,12.88
2022-11-12T11:45:01.053Z,13.27
2022-11-12T11:48:01.736Z,13.14
2022-11-12T11:50:58.650Z,13.39
2022-11-12T11:53:55.009Z,13.46
2022-11-12T11:56:45.132Z,13.23
2022-11-12T11:59:46.481Z,13.85
2022-11-12T12:02:55.403Z,13.29
2022-11-12T12:05:47.004Z,13.30
2022-11-12T12:09:00.534Z,13.68
2022-11-12T12:11:57.219Z,13.71
2022-11-12T12:14:58.269Z,13.78
2022-11-12T12:17:58.837Z,13.38
2022-11-12T12:20:52.679Z,12.98
2022-11-12T12:23:45.514Z,12.84
2022-11-12T12:26:41.339Z,12.67
2022-11-12T12:29:35.378Z,12.64
2022-11-12T12:32:28.042Z,12.57
2022-11-12T12:35:25.071Z,12.53
2022-11-12T12:38:19.481Z,12.33
2022-11-12T12:41:15.910Z,12.33
2022-11-12T12:44:06.939Z,12.18
2022-11-12T12:46:59.790Z,12.14
2022-11-12T12:49:49.872Z,12.00
2022-11-12T12:53:04.186Z,12.05
2022-11-12T12:55:53.812Z,12.04
2022-11-12T12:58:45.175Z,12.13
2022-11-12T13:01:36.369Z,12.07
2022-11-12T13:04:52.723Z,12.12
2022-11-12T13:07:43.672Z,12.08
2022-11-12T13:10:59.488Z,12.12
2022-11-12T13:13:47.138Z,12.07
2022-11-12T13:16:58.514Z,12.02
2022-11-12T13:19:48.647Z,11.87
2022-11-12T13:22:51.870Z,11.83
2022-11-12T13:25:40.257Z,11.73
2022-11-12T13:28:29.563Z,11.79
2022-11-12T13:31:28.725Z,11.79
2022-11-12T13:34:27.117Z,11.76
2022-11-12T13:37:21.399Z,11.71
2022-11-12T13:40:14.650Z,11.72
2022-11-12T13:43:11.059Z,11.72
2022-11-12T13:46:11.768Z,11.67
2022-11-12T13:49:03.164Z,11.65
2022-11-12T13:51:53.190Z,11.66
2022-11-12T13:54:41.275Z,11.61
2022-11-12T13:57:31.623Z,11.61
2022-11-12T14:00:26.473Z,11.74
2022-11-12T14:03:20.145Z,11.77
2022-11-12T14:06:16.590Z,12.08
2022-11-12T14:09:34.839Z,12.35
2022-11-12T14:12:38.428Z,12.34
2022-11-12T14:15:37.305Z,12.11
2022-11-12T14:18:37.503Z,11.99
2022-11-12T14:21:25.088Z,11.74
2022-11-12T14:24:14.839Z,11.70
2022-11-12T14:27:02.684Z,11.64
2022-11-12T14:29:50.067Z,11.54
2022-11-12T14:32:38.514Z,11.45
2022-11-12T14:35:38.463Z,11.44
2022-11-12T14:38:31.616Z,11.38
2022-11-12T14:41:22.365Z,11.63
2022-11-12T14:44:18.480Z,11.70
2022-11-12T14:47:06.192Z,11.34
2022-11-12T14:49:54.131Z,11.13
2022-11-12T14:52:48.235Z,10.95
2022-11-12T14:55:38.503Z,10.77
2022-11-12T14:58:27.959Z,10.63
2022-11-12T15:04:42.516Z,10.33
2022-11-12T15:07:33.394Z,10.19
2022-11-12T15:10:34.258Z,9.99
2022-11-12T15:13:25.589Z,9.85
2022-11-12T15:16:20.519Z,9.61
2022-11-12T15:19:18.673Z,9.40
2022-11-12T15:22:06.691Z,9.35
2022-11-12T15:24:54.443Z,9.40
2022-11-12T15:27:44.049Z,9.26
2022-11-12T15:30:33.171Z,9.16
2022-11-12T15:33:24.102Z,9.12
2022-11-12T15:36:18.914Z,8.87
2022-11-12T15:39:13.086Z,8.89
2022-11-12T15:42:03.090Z,8.73
2022-11-12T15:44:58.195Z,8.65
2022-11-12T15:47:46.135Z,8.51
2022-11-12T15:50:33.561Z,8.43
2022-11-12T15:53:20.965Z,8.36
2022-11-12T15:56:14.062Z,8.24
2022-11-12T15:59:01.888Z,8.12
2022-11-12T16:01:50.810Z,8.02
2022-11-12T16:04:38.406Z,7.92
2022-11-12T16:07:26.005Z,7.92
2022-11-12T16:10:15.872Z,7.85
2022-11-12T16:13:05.116Z,7.79
2022-11-12T16:15:53.711Z,7.72
2022-11-12T16:18:42.915Z,7.56
2022-11-12T16:21:30.775Z,7.63
2022-11-12T16:24:18.257Z,7.54
2022-11-12T16:27:07.483Z,7.44
2022-11-12T16:29:55.185Z,7.15
2022-11-12T16:32:42.814Z,7.22
2022-11-12T16:35:36.208Z,7.16
2022-11-12T16:38:25.726Z,7.16
2022-11-12T16:41:15.223Z,7.07
2022-11-12T16:44:02.652Z,7.11
2022-11-12T16:46:50.149Z,7.06
2022-11-12T16:49:38.999Z,6.95
2022-11-12T16:52:28.309Z,6.92
2022-11-12T16:55:16.575Z,6.88
2022-11-12T16:58:04.368Z,6.68
2022-11-12T17:00:51.959Z,6.78
2022-11-12T17:03:39.486Z,6.70
2022-11-12T17:06:35.339Z,6.65
2022-11-12T17:09:24.736Z,6.59
2022-11-12T17:12:12.248Z,6.67
2022-11-12T17:15:00.045Z,6.52
2022-11-12T17:17:47.538Z,6.48
2022-11-12T17:20:35.056Z,6.51
2022-11-12T17:23:22.616Z,6.47
2022-11-12T17:26:14.254Z,6.34
2022-11-12T17:29:07.639Z,6.27
2022-11-12T17:31:55.609Z,6.12
2022-11-12T17:34:42.998Z,5.99
2022-11-12T17:37:30.717Z,5.98
2022-11-12T17:40:18.520Z,5.87
2022-11-12T17:43:07.500Z,6.07
2022-11-12T17:45:56.445Z,6.09
2022-11-12T17:48:44.685Z,6.11
2022-11-12T17:51:32.682Z,5.99
2022-11-12T17:54:21.312Z,5.82
2022-11-12T17:57:08.827Z,5.82
2022-11-12T17:59:57.810Z,5.69
2022-11-12T18:02:45.181Z,5.61
2022-11-12T18:05:32.641Z,5.58
2022-11-12T18:08:20.075Z,5.88
2022-11-12T18:11:07.773Z,5.96
2022-11-12T18:13:56.481Z,5.80
2022-11-12T18:16:46.044Z,5.89
2022-11-12T18:19:33.825Z,5.92
2022-11-12T18:22:21.648Z,5.97
2022-11-12T18:25:10.131Z,5.82
2022-11-12T18:27:57.775Z,5.82
2022-11-12T18:30:45.160Z,5.99
2022-11-12T18:33:36.019Z,6.12
2022-11-12T18:36:25.865Z,6.28
2022-11-12T18:39:14.762Z,6.34
2022-11-12T18:42:02.470Z,6.00
2022-11-12T18:44:50.118Z,5.75
2022-11-12T18:47:37.579Z,5.54
2022-11-12T18:50:26.555Z,5.69
2022-11-12T18:53:14.310Z,5.79
2022-11-12T18:56:03.551Z,5.80
2022-11-12T18:58:51.110Z,6.11
2022-11-12T19:01:38.593Z,6.23
2022-11-12T19:04:26.581Z,6.19
2022-11-12T19:07:15.711Z,6.13
2022-11-12T19:10:14.771Z,5.90
2022-11-12T19:13:05.017Z,5.71
2022-11-12T19:15:52.859Z,5.56
2022-11-12T19:18:41.710Z,5.54
2022-11-12T19:21:29.637Z,5.45
2022-11-12T19:24:18.767Z,5.58
2022-11-12T19:27:06.351Z,5.78
2022-11-12T19:29:58.452Z,5.94
2022-11-12T19:32:49.149Z,5.68
2022-11-12T19:35:36.614Z,5.64
2022-11-12T19:38:24.509Z,5.57
2022-11-12T19:41:19.387Z,5.58
2022-11-12T19:44:08.025Z,5.55
2022-11-12T19:46:55.891Z,5.59
2022-11-12T19:49:43.520Z,5.71
2022-11-12T19:52:30.980Z,5.85
2022-11-12T19:55:18.480Z,5.84
2022-11-12T19:58:08.428Z,5.97
2022-11-12T20:00:56.198Z,5.98
2022-11-12T20:03:44.068Z,5.84
2022-11-12T20:06:31.630Z,5.78
2022-11-12T20:09:19.745Z,5.82
2022-11-12T20:12:08.721Z,5.82
2022-11-12T20:14:57.904Z,5.77
2022-11-12T20:17:45.640Z,5.80
2022-11-12T20:20:33.248Z,5.88
2022-11-12T20:23:23.467Z,5.88
2022-11-12T20:26:13.085Z,5.98
2022-11-12T20:29:00.981Z,6.01
2022-11-12T20:31:50.236Z,5.84
2022-11-12T20:34:37.672Z,5.72
2022-11-12T20:37:25.986Z,5.69
2022-11-12T20:40:13.883Z,5.61
2022-11-12T20:43:01.480Z,5.65
2022-11-12T20:45:52.157Z,5.52
2022-11-12T20:48:43.819Z,5.58
2022-11-12T20:51:32.891Z,5.60
2022-11-12T20:54:21.541Z,5.51
2022-11-12T20:57:09.261Z,5.46
2022-11-12T20:59:56.835Z,5.47
2022-11-12T21:02:44.599Z,5.40
2022-11-12T21:05:34.092Z,5.08
2022-11-12T21:08:22.044Z,5.00
2022-11-12T21:11:11.488Z,4.96
2022-11-12T21:14:01.011Z,4.93
2022-11-12T21:16:48.896Z,5.30
2022-11-12T21:19:36.434Z,5.19
2022-11-12T21:22:25.337Z,5.06
2022-11-12T21:25:12.888Z,4.95
2022-11-12T21:28:00.605Z,4.93
2022-11-12T21:30:48.319Z,4.70
2022-11-12T21:33:36.283Z,4.81
2022-11-12T21:36:24.663Z,4.87
2022-11-12T21:39:13.950Z,4.56
2022-11-12T21:42:01.678Z,4.47
2022-11-12T21:44:49.544Z,4.39
2022-11-12T21:47:37.173Z,4.30
2022-11-12T21:50:24.974Z,4.20
2022-11-12T21:53:12.564Z,4.11
2022-11-12T21:56:04.857Z,4.11
2022-11-12T21:58:53.450Z,4.03
2022-11-12T22:01:41.911Z,4.02
2022-11-12T22:04:29.873Z,3.98
2022-11-12T22:07:17.619Z,3.97
2022-11-12T22:10:06.354Z,3.84
2022-11-12T22:13:24.745Z,3.83
2022-11-12T22:16:07.206Z,3.77
2022-11-12T22:18:56.591Z,3.74
2022-11-12T22:21:44.404Z,3.55
2022-11-12T22:24:32.196Z,3.37
2022-11-12T22:27:19.751Z,3.27
2022-11-12T22:30:10.149Z,3.27
2022-11-12T22:32:58.208Z,3.32
2022-11-12T22:35:46.304Z,3.49
2022-11-12T22:38:35.293Z,3.63
2022-11-12T22:41:25.462Z,3.63
2022-11-12T22:44:13.308Z,3.79
2022-11-12T22:47:05.235Z,3.97
2022-11-12T22:49:53.119Z,4.00
2022-11-12T22:52:43.482Z,3.90
2022-11-12T22:55:35.315Z,3.80
2022-11-12T22:58:23.137Z,3.83
2022-11-12T23:01:20.733Z,3.88
2022-11-12T23:04:09.938Z,3.92
2022-11-12T23:06:57.810Z,3.98
2022-11-12T23:09:45.461Z,3.95
2022-11-12T23:12:32.916Z,4.00
2022-11-12T23:15:20.426Z,4.07
2022-11-12T23:18:08.079Z,4.13
2022-11-12T23:21:03.499Z,4.01
2022-11-12T23:23:51.506Z,4.04
2022-11-12T23:26:39.466Z,4.03
2022-11-12T23:29:27.425Z,4.00
2022-11-12T23:32:15.165Z,3.89
2022-11-12T23:35:02.889Z,3.82
2022-11-12T23:37:53.133Z,3.69
2022-11-12T23:40:40.663Z,3.75
2022-11-12T23:43:28.175Z,3.73
2022-11-12T23:46:16.203Z,3.66
2022-11-12T23:49:04.263Z,3.74
2022-11-12T23:51:51.694Z,3.66
2022-11-12T23:54:40.850Z,3.54
2022-11-12T23:57:28.528Z,3.39
